Time;durP1;ratioP1;P1;durP2;ratioP2;P2;SDS_P1;SDS_P2;PMS_P1;PMS_P2;Temp;Humidity;BMP_temperature;BMP_pressure;BME280_temperature;BME280_humidity;BME280_pressure;Samples;Min_cycle;Max_cycle;Signal;HPM_P1;HPM_P2
2021/01/25 03:41:06;;;;;;;;;;;;;;;;;;;;;
2021/01/25 04:35:41;;;;;;;;;;;;;;;;;;;;;
2021/01/25 04:38:22;;;;;;;26.70;25.60;;;0.90;99.90;;;;;;6074394;23;20442;-83
2021/01/25 04:41:04;;;;;;;27.00;25.90;;;0.90;99.90;;;;;;6065129;23;20208;-83
2021/01/25 04:44:09;;;;;;;;;;;;;;;;;;;;;
2021/01/25 04:46:38;;;;;;;28.65;27.55;;;0.80;99.90;;;;;;6210291;23;20422;-83
2021/01/25 04:49:11;;;;;;;29.40;28.20;;;0.80;99.90;;;;;;6212993;23;20182;-83
2021/01/25 04:51:43;;;;;;;28.80;27.70;;;0.80;99.90;;;;;;6224200;23;20418;-84
2021/01/25 04:54:10;;;;;;;30.60;29.40;;;0.80;99.90;;;;;;6225942;23;20161;-83
2021/01/25 04:56:43;;;;;;;28.40;27.30;;;0.80;99.90;;;;;;6223932;23;20407;-83
2021/01/25 04:59:13;;;;;;;29.87;28.67;;;0.90;99.90;;;;;;6224571;23;20512;-83
2021/01/25 05:01:46;;;;;;;30.30;29.10;;;0.80;99.90;;;;;;6214077;23;20432;-83
2021/01/25 05:04:16;;;;;;;30.87;29.67;;;0.80;99.90;;;;;;6234805;22;20456;-83
2021/01/25 05:06:50;;;;;;;28.90;27.77;;;0.70;99.90;;;;;;6318727;22;20466;-82
2021/01/25 05:09:19;;;;;;;30.30;29.10;;;0.80;99.90;;;;;;6318695;22;20498;-81
2021/01/25 05:11:59;;;;;;;28.70;27.60;;;0.90;99.90;;;;;;6309194;22;20450;-82
2021/01/25 05:14:54;;;;;;;28.50;27.40;;;0.80;99.90;;;;;;6309247;22;20397;-82
2021/01/25 05:17:26;;;;;;;29.60;28.40;;;0.70;99.90;;;;;;6308974;22;20413;-82
2021/01/25 05:19:59;;;;;;;30.47;29.27;;;0.70;99.90;;;;;;6317855;22;20878;-82
2021/01/25 05:22:28;;;;;;;29.13;27.92;;;0.80;99.90;;;;;;6309038;22;20401;-82
2021/01/25 05:24:57;;;;;;;29.83;28.63;;;0.70;99.90;;;;;;6318873;22;20156;-81
2021/01/25 05:27:25;;;;;;;29.70;28.50;;;0.80;99.90;;;;;;6318378;22;20179;-82
2021/01/25 05:29:52;;;;;;;30.90;29.70;;;0.80;99.90;;;;;;6308686;22;20440;-77
2021/01/25 05:32:21;;;;;;;29.80;28.60;;;0.80;99.90;;;;;;6318939;22;20470;-82
2021/01/25 05:34:48;;;;;;;30.03;28.83;;;0.80;99.90;;;;;;6316822;22;20742;-83
2021/01/25 05:37:22;;;;;;;30.17;28.97;;;0.70;99.90;;;;;;6318713;22;20456;-83
2021/01/25 05:39:51;;;;;;;29.73;28.52;;;0.70;99.90;;;;;;6318776;22;20413;-83
2021/01/25 05:42:32;;;;;;;31.70;30.40;;;0.70;99.90;;;;;;6319245;22;20151;-82
2021/01/25 05:45:09;;;;;;;30.63;29.43;;;0.80;99.90;;;;;;6319424;22;20505;-82
2021/01/25 05:47:49;;;;;;;31.00;29.80;;;0.70;99.90;;;;;;6308560;22;20515;-83
2021/01/25 05:50:46;;;;;;;30.20;29.00;;;0.80;99.90;;;;;;6317626;22;20397;-83
2021/01/25 05:53:13;;;;;;;30.03;28.83;;;0.80;99.90;;;;;;6318237;22;20398;-83
2021/01/25 05:55:41;;;;;;;30.55;29.35;;;0.70;99.90;;;;;;6308650;22;20481;-79
2021/01/25 05:58:13;;;;;;;31.45;30.25;;;0.60;99.90;;;;;;6308673;22;20705;-85
2021/01/25 06:00:40;;;;;;;32.43;31.13;;;0.70;99.90;;;;;;6308460;22;20191;-85
2021/01/25 06:03:19;;;;;;;33.90;32.60;;;0.70;99.90;;;;;;6307914;22;20403;-83
2021/01/25 06:05:54;;;;;;;31.00;29.80;;;0.70;99.90;;;;;;6317577;22;20159;-82
2021/01/25 06:08:30;;;;;;;32.50;31.20;;;0.80;99.90;;;;;;6318259;22;20517;-83
2021/01/25 06:11:15;;;;;;;30.90;29.70;;;0.60;99.90;;;;;;6308161;22;20401;-82
2021/01/25 06:14:03;;;;;;;34.00;32.60;;;0.70;99.90;;;;;;6319004;22;20155;-83
2021/01/25 06:16:38;;;;;;;31.20;30.00;;;0.70;99.90;;;;;;6318265;22;20942;-83
2021/01/25 06:19:11;;;;;;;31.83;30.60;;;0.70;99.90;;;;;;6237454;22;20966;-83
2021/01/25 06:21:47;;;;;;;31.70;30.50;;;0.70;99.90;;;;;;6308482;22;20393;-83
2021/01/25 06:24:18;;;;;;;35.30;33.90;;;0.80;99.90;;;;;;6318844;22;20405;-83
2021/01/25 06:27:20;;;;;;;;;;;;;;;;;;;;;
2021/01/25 06:29:54;;;;;;;34.73;33.37;;;0.80;99.90;;;;;;6280123;22;20404;-83
2021/01/25 06:32:27;;;;;;;32.33;31.03;;;0.70;99.90;;;;;;6318186;22;20397;-82
2021/01/25 06:35:03;;;;;;;32.13;30.83;;;0.80;99.90;;;;;;6316803;22;20405;-83
2021/01/25 06:37:35;;;;;;;33.30;32.00;;;0.70;99.90;;;;;;6307572;22;20488;-84
2021/01/25 06:40:40;;;;;;;;;;;;;;;;;;;;;
2021/01/25 06:43:14;;;;;;;32.85;31.55;;;0.70;99.90;;;;;;6265838;22;20166;-84
2021/01/25 06:45:49;;;;;;;32.60;31.30;;;0.70;99.90;;;;;;6307754;22;20421;-84
2021/01/25 06:48:25;;;;;;;33.70;32.40;;;0.80;99.90;;;;;;6307626;22;20185;-82
2021/01/25 06:51:16;;;;;;;33.23;31.93;;;0.80;99.90;;;;;;6317393;22;20462;-84
2021/01/25 06:54:01;;;;;;;32.50;31.20;;;0.80;99.90;;;;;;6321002;22;20413;-83
2021/01/25 06:56:44;;;;;;;32.70;31.40;;;0.70;99.90;;;;;;6318654;22;20473;-85
2021/01/25 07:06:30;;;;;;;33.08;31.77;;;0.80;99.90;;;;;;6146694;23;20162;-83
2021/01/25 07:10:05;;;;;;;;;;;;;;;;;;;;;
2021/01/25 07:12:41;;;;;;;31.47;30.27;;;0.80;99.90;;;;;;6207733;22;20414;-83
2021/01/25 07:18:27;;;;;;;32.07;30.83;;;0.80;99.90;;;;;;6228727;22;20411;-83
2021/01/25 07:23:58;;;;;;;33.60;32.30;;;0.80;99.90;;;;;;6284150;22;20409;-84
2021/01/25 07:26:57;;;;;;;31.07;29.87;;;0.80;99.90;;;;;;6287155;22;20732;-83
2021/01/25 07:49:26;;;;;;;31.88;30.65;;;0.90;99.90;;;;;;5970001;23;20205;-85
2021/01/25 07:51:53;;;;;;;31.52;30.33;;;0.90;99.90;;;;;;6154324;23;20173;-83
2021/01/25 07:54:34;;;;;;;30.80;29.60;;;1.00;99.90;;;;;;6180225;23;20176;-83
2021/01/25 07:57:31;;;;;;;32.30;31.00;;;1.00;99.90;;;;;;6191030;23;20903;-82
2021/01/25 08:09:50;;;;;;;;;;;;;;;;;;;;;
2021/01/25 08:16:15;;;;;;;;;;;;;;;;;;;;;
2021/01/25 08:18:52;;;;;;;32.40;31.10;;;1.20;99.90;;;;;;6311117;22;20471;-84
2021/01/25 08:21:45;;;;;;;34.43;33.03;;;1.40;99.90;;;;;;6308537;22;20460;-83
2021/01/25 08:24:20;;;;;;;31.60;30.40;;;1.30;99.90;;;;;;6309684;22;20401;-83
2021/01/25 08:26:47;;;;;;;31.30;30.10;;;1.20;99.90;;;;;;6319498;22;20402;-81
2021/01/25 08:29:21;;;;;;;31.00;29.80;;;1.30;99.90;;;;;;6309175;22;20692;-84
2021/01/25 08:31:56;;;;;;;31.10;29.90;;;1.40;99.90;;;;;;6319811;22;20408;-83
2021/01/25 08:35:00;;;;;;;34.90;33.60;;;1.30;99.90;;;;;;6308306;22;20453;-84
2021/01/25 08:37:55;;;;;;;31.30;30.10;;;1.40;99.90;;;;;;6319575;22;20401;-84
2021/01/25 08:40:22;;;;;;;32.60;31.30;;;1.30;99.90;;;;;;6309280;22;20151;-83
2021/01/25 08:42:54;;;;;;;33.63;32.33;;;1.30;99.90;;;;;;6319494;22;20412;-82
2021/01/25 08:45:25;;;;;;;34.63;33.23;;;1.30;99.90;;;;;;6309672;22;20455;-83
2021/01/25 08:48:02;;;;;;;35.33;33.93;;;1.40;99.90;;;;;;6309282;22;20429;-81
2021/01/25 08:50:31;;;;;;;34.30;33.00;;;1.30;99.90;;;;;;6308139;22;20411;-83
2021/01/25 08:52:59;;;;;;;35.97;34.57;;;1.40;99.90;;;;;;6308939;22;20155;-82
2021/01/25 08:55:35;;;;;;;35.27;33.87;;;1.40;99.90;;;;;;6312945;22;20402;-82
2021/01/25 08:58:02;;;;;;;34.30;33.00;;;1.30;99.90;;;;;;6309303;22;20499;-82
2021/01/25 09:00:34;;;;;;;35.17;33.77;;;1.40;99.90;;;;;;6319458;22;20487;-84
2021/01/25 09:03:05;;;;;;;35.53;34.13;;;1.40;99.90;;;;;;6318977;22;20405;-83
2021/01/25 09:05:54;;;;;;;36.20;34.80;;;1.40;99.90;;;;;;6307936;22;20485;-84
2021/01/25 09:09:02;;;;;;;;;;;;;;;;;;;;;
2021/01/25 09:11:35;;;;;;;35.53;34.13;;;1.40;99.90;;;;;;6308254;22;20171;-83
2021/01/25 09:14:01;;;;;;;36.45;35.05;;;1.60;99.90;;;;;;6309155;22;20397;-83
2021/01/25 09:16:52;;;;;;;36.53;35.13;;;1.50;99.90;;;;;;6309186;22;20158;-84
2021/01/25 09:20:07;;;;;;;37.40;36.00;;;1.60;99.90;;;;;;6307826;22;21117;-83
2021/01/25 09:23:22;;;;;;;;;;;;;;;;;;;;;
2021/01/25 09:29:25;;;;;;;36.30;34.90;;;1.60;99.90;;;;;;6008790;23;20484;-84
2021/01/25 09:32:10;;;;;;;38.23;36.73;;;1.60;99.90;;;;;;6159379;23;20428;-85
2021/01/25 09:38:08;;;;;;;38.33;36.83;;;1.70;99.90;;;;;;6025684;23;20419;-88
2021/01/25 09:43:54;;;;;;;38.30;36.80;;;2.00;99.90;;;;;;6110793;23;20420;-83
2021/01/25 09:53:34;;;;;;;;;;;;;;;;;;;;;
2021/01/25 09:56:24;;;;;;;38.10;36.60;;;2.30;99.90;;;;;;6182244;23;20444;-83
2021/01/25 09:59:08;;;;;;;36.40;35.00;;;2.40;99.90;;;;;;6133966;23;20433;-83
2021/01/25 10:04:33;;;;;;;38.20;36.70;;;2.30;99.90;;;;;;6304884;22;20908;-85
2021/01/25 10:07:39;;;;;;;;;;;;;;;;;;;;;
2021/01/25 10:10:34;;;;;;;35.37;33.97;;;2.30;99.90;;;;;;6313868;22;20454;-83
2021/01/25 10:16:49;;;;;;;;;;;;;;;;;;;;;
2021/01/25 10:19:57;;;;;;;;;;;;;;;;;;;;;
2021/01/25 10:22:33;;;;;;;;;;;;;;;;;;;;;
2021/01/25 10:25:45;;;;;;;;;;;;;;;;;;;;;
2021/01/25 10:29:12;;;;;;;;;;;;;;;;;;;;;
2021/01/25 10:31:39;;;;;;;26.10;25.00;;;2.50;99.90;;;;;;6306365;22;20481;-82
2021/01/25 10:34:27;;;;;;;;;;;;;;;;;;;;;
2021/01/25 10:37:12;;;;;;;25.30;24.30;;;2.50;99.90;;;;;;6307844;22;20406;-82
2021/01/25 10:39:55;;;;;;;26.10;25.00;;;2.60;99.90;;;;;;6316479;22;20156;-82
2021/01/25 10:42:28;;;;;;;25.10;24.10;;;2.60;99.90;;;;;;6306457;22;20394;-83
2021/01/25 10:45:06;;;;;;;;;;;;;;;;;;;;;
2021/01/25 10:51:12;;;;;;;;;;;;;;;;;;;;;
2021/01/25 10:54:07;;;;;;;23.43;22.47;;;2.60;99.90;;;;;;6303666;22;20421;-82
2021/01/25 10:56:51;;;;;;;;;;;;;;;;;;;;;
2021/01/25 11:00:03;;;;;;;;;;;;;;;;;;;;;
2021/01/25 11:03:02;;;;;;;22.97;21.97;;;2.40;99.90;;;;;;6210622;22;20413;-83
2021/01/25 11:37:52;;;;;;;;;;;;;;;;;;;;;
2021/01/25 11:40:59;;;;;;;18.77;17.88;;;2.80;99.90;;;;;;6202498;23;20420;-83
2021/01/25 11:43:33;;;;;;;17.03;16.23;;;3.00;99.90;;;;;;6212361;23;20160;-83
2021/01/25 11:45:59;;;;;;;16.00;15.30;;;3.20;99.90;;;;;;6219340;23;20519;-83
2021/01/25 11:48:27;;;;;;;15.30;14.60;;;3.40;99.90;;;;;;6224387;23;20424;-83
2021/01/25 11:51:01;;;;;;;14.40;13.70;;;3.60;99.90;;;;;;6236314;22;20429;-83
2021/01/25 11:53:27;;;;;;;13.90;13.20;;;3.60;99.90;;;;;;6307239;22;20861;-83
2021/01/25 11:56:08;;;;;;;12.00;11.40;;;3.90;99.90;;;;;;6307268;22;20398;-85
2021/01/25 11:58:46;;;;;;;;;;;;;;;;;;;;;
2021/01/25 12:01:16;;;;;;;12.20;11.60;;;3.90;99.90;;;;;;6312583;22;20422;-84
2021/01/25 12:03:49;;;;;;;12.43;11.83;;;4.00;99.90;;;;;;6305378;22;20401;-83
2021/01/25 12:06:30;;;;;;;;;;;;;;;;;;;;;
2021/01/25 12:09:12;;;;;;;10.67;10.07;;;4.20;99.90;;;;;;6306430;22;20442;-83
2021/01/25 12:15:26;;;;;;;;;;;;;;;;;;;;;
2021/01/25 12:17:58;;;;;;;9.52;9.02;;;4.70;86.30;;;;;;6287270;22;20496;-84
2021/01/25 12:20:33;;;;;;;10.47;9.87;;;4.50;87.80;;;;;;6305445;22;20155;-83
2021/01/25 12:23:09;;;;;;;9.20;8.70;;;4.30;91.60;;;;;;6307018;22;20409;-83
2021/01/25 12:25:35;;;;;;;9.80;9.20;;;4.10;93.70;;;;;;6317988;22;20884;-84
2021/01/25 12:35:09;;;;;;;;;;;;;;;;;;;;;
2021/01/25 12:37:53;;;;;;;8.80;8.30;;;3.60;99.90;;;;;;6306684;22;20734;-84
2021/01/25 12:40:48;;;;;;;10.00;9.40;;;3.70;99.90;;;;;;6317723;22;20409;-83
2021/01/25 12:46:15;;;;;;;7.70;7.20;;;4.70;94.90;;;;;;6304832;22;20409;-84
2021/01/25 12:49:14;;;;;;;7.63;7.13;;;5.30;81.40;;;;;;6307359;22;20258;-84
2021/01/25 12:52:06;;;;;;;7.60;7.10;;;5.40;76.20;;;;;;6302714;22;20413;-84
2021/01/25 12:55:11;;;;;;;;;;;;;;;;;;;;;
2021/01/25 12:58:14;;;;;;;;;;;;;;;;;;;;;
2021/01/25 13:01:02;;;;;;;6.65;6.15;;;5.60;68.20;;;;;;6285102;22;20428;-81
2021/01/25 13:03:59;;;;;;;6.47;5.97;;;5.30;62.90;;;;;;6308457;22;20513;-81
2021/01/25 13:06:52;;;;;;;5.47;5.07;;;5.50;64.90;;;;;;6153098;23;20423;-82
2021/01/25 13:09:42;;;;;;;;;;;;;;;;;;;;;
2021/01/25 13:12:23;;;;;;;7.07;6.53;;;5.20;59.10;;;;;;6308286;22;20401;-81
2021/01/25 13:15:06;;;;;;;4.90;4.50;;;5.20;65.50;;;;;;6319733;22;20402;-81
2021/01/25 13:20:37;;;;;;;4.70;4.30;;;4.90;65.70;;;;;;6317546;22;20402;-82
2021/01/25 13:23:04;;;;;;;6.70;6.10;;;4.70;69.90;;;;;;6319250;22;20735;-81
2021/01/25 13:25:37;;;;;;;4.60;4.20;;;4.60;72.60;;;;;;6309188;22;20397;-81
2021/01/25 13:28:14;;;;;;;4.00;3.60;;;4.30;73.10;;;;;;6319257;22;20551;-81
2021/01/25 13:30:44;;;;;;;4.70;4.30;;;4.50;73.20;;;;;;6319434;22;20408;-81
2021/01/25 13:33:24;;;;;;;4.57;4.17;;;4.60;69.20;;;;;;6310417;22;20432;-80
2021/01/25 13:35:59;;;;;;;4.20;3.80;;;4.80;64.10;;;;;;6307293;22;20397;-82
2021/01/25 13:38:27;;;;;;;4.10;3.70;;;4.90;63.10;;;;;;6308953;22;20412;-81
2021/01/25 13:41:20;;;;;;;;;;;;;;;;;;;;;
2021/01/25 13:43:50;;;;;;;4.43;4.03;;;4.50;67.20;;;;;;6308438;22;20406;-81
2021/01/25 13:46:21;;;;;;;4.37;3.97;;;3.90;70.60;;;;;;6308835;22;20397;-84
2021/01/25 13:48:52;;;;;;;4.10;3.70;;;3.70;75.80;;;;;;6318891;22;20901;-84
2021/01/25 13:51:20;;;;;;;4.73;4.33;;;3.40;89.20;;;;;;6229331;22;20401;-83
2021/01/25 13:53:48;;;;;;;4.90;4.50;;;3.30;97.00;;;;;;6308531;22;20509;-84
2021/01/25 13:56:37;;;;;;;;;;;;;;;;;;;;;
2021/01/25 13:59:12;;;;;;;5.30;4.90;;;2.90;99.90;;;;;;6302385;22;20413;-83
2021/01/25 14:01:40;;;;;;;5.50;5.10;;;2.80;99.90;;;;;;6308186;22;20440;-83
2021/01/25 14:04:15;;;;;;;5.60;5.20;;;2.80;99.90;;;;;;6307706;22;20156;-83
2021/01/25 14:07:04;;;;;;;6.00;5.57;;;2.70;99.90;;;;;;6318672;22;20467;-83
2021/01/25 14:09:34;;;;;;;6.10;5.70;;;2.60;99.90;;;;;;6308000;22;20429;-83
2021/01/25 14:12:16;;;;;;;6.43;5.93;;;2.30;99.90;;;;;;6318393;22;20528;-83
2021/01/25 14:14:59;;;;;;;6.20;5.80;;;2.10;99.90;;;;;;6308170;22;20395;-83
2021/01/25 14:17:26;;;;;;;8.95;8.38;;;2.00;99.90;;;;;;6308630;22;20152;-83
2021/01/25 14:20:20;;;;;;;6.93;6.43;;;2.00;99.90;;;;;;6306898;22;20156;-83
2021/01/25 14:23:00;;;;;;;6.70;6.20;;;2.00;99.90;;;;;;6295982;22;20453;-84
2021/01/25 14:25:33;;;;;;;7.10;6.60;;;1.80;99.90;;;;;;6308615;22;20404;-83
2021/01/25 14:28:34;;;;;;;7.57;7.07;;;1.60;99.90;;;;;;6308551;22;20398;-83
2021/01/25 14:31:03;;;;;;;7.90;7.40;;;1.60;99.90;;;;;;6303003;22;20729;-83
2021/01/25 14:33:50;;;;;;;7.90;7.40;;;1.50;99.90;;;;;;6308544;22;20409;-83
2021/01/25 14:36:27;;;;;;;7.97;7.47;;;1.50;99.90;;;;;;6306756;22;20401;-84
2021/01/25 14:39:10;;;;;;;7.40;6.90;;;1.50;99.90;;;;;;6318588;22;20743;-83
2021/01/25 14:41:44;;;;;;;7.50;7.00;;;1.50;99.90;;;;;;6318420;22;20409;-82
2021/01/25 14:47:31;;;;;;;8.30;7.80;;;1.50;99.90;;;;;;6196137;22;20543;-84
2021/01/25 14:49:57;;;;;;;7.80;7.30;;;1.60;99.90;;;;;;6316399;22;20436;-85
2021/01/25 14:52:25;;;;;;;7.55;7.05;;;1.70;99.90;;;;;;6308284;22;20234;-83
2021/01/25 14:55:03;;;;;;;7.60;7.10;;;1.80;99.90;;;;;;6308244;22;20152;-83
2021/01/25 14:57:42;;;;;;;8.57;8.07;;;2.00;99.90;;;;;;6307988;22;20772;-83
2021/01/25 15:00:35;;;;;;;7.83;7.33;;;2.10;99.90;;;;;;6304788;22;20241;-83
2021/01/25 15:03:17;;;;;;;7.67;7.17;;;1.90;99.90;;;;;;6261229;22;20451;-83
2021/01/25 15:06:07;;;;;;;7.82;7.32;;;1.90;99.90;;;;;;6304365;22;20443;-83
2021/01/25 15:08:35;;;;;;;8.20;7.70;;;1.80;99.90;;;;;;6316108;22;20492;-83
2021/01/25 15:11:18;;;;;;;8.73;8.23;;;1.80;99.90;;;;;;6305496;22;20585;-83
2021/01/25 15:14:05;;;;;;;9.63;9.03;;;1.80;99.90;;;;;;6315885;22;20434;-83
2021/01/25 15:16:39;;;;;;;8.70;8.20;;;2.00;99.90;;;;;;6220356;22;20413;-83
2021/01/25 15:19:29;;;;;;;8.80;8.30;;;2.00;99.90;;;;;;6305793;22;20892;-83
2021/01/25 15:22:10;;;;;;;;;;;;;;;;;;;;;
2021/01/25 15:24:48;;;;;;;;;;;;;;;;;;;;;
2021/01/25 15:27:36;;;;;;;9.25;8.75;;;2.00;99.90;;;;;;6210766;22;20405;-83
2021/01/25 15:30:31;;;;;;;;;;;;;;;;;;;;;
2021/01/25 15:33:01;;;;;;;8.80;8.30;;;1.80;99.90;;;;;;6238915;22;20418;-83
2021/01/25 15:35:28;;;;;;;10.00;9.15;;;1.90;99.90;;;;;;6305231;22;20398;-83
2021/01/25 15:37:56;;;;;;;8.40;7.90;;;1.80;99.90;;;;;;6307469;22;20592;-84
2021/01/25 15:43:47;;;;;;;;;;;;;;;;;;;;;
2021/01/25 15:46:27;;;;;;;;;;;;;;;;;;;;;
2021/01/25 15:48:58;;;;;;;10.17;9.57;;;1.70;99.90;;;;;;6279767;22;20563;-83
2021/01/25 15:51:27;;;;;;;10.50;9.90;;;1.60;99.90;;;;;;6306286;22;20398;-82
2021/01/25 15:53:53;;;;;;;10.60;10.00;;;1.40;99.90;;;;;;6307602;22;20217;-82
2021/01/25 15:56:20;;;;;;;11.50;10.90;;;1.30;99.90;;;;;;6307391;22;20489;-83
2021/01/25 15:58:48;;;;;;;13.10;12.40;;;1.10;99.90;;;;;;6318154;22;20446;-82
2021/01/25 16:01:18;;;;;;;12.57;11.98;;;1.20;99.90;;;;;;6307470;22;20471;-82
2021/01/25 16:03:50;;;;;;;14.80;14.10;;;1.10;99.90;;;;;;6317584;22;20500;-83
2021/01/25 16:06:35;;;;;;;14.40;13.70;;;0.90;99.90;;;;;;6316610;22;20529;-82
2021/01/25 16:09:01;;;;;;;14.70;14.00;;;0.90;99.90;;;;;;6317936;22;20429;-81
2021/01/25 16:11:33;;;;;;;16.90;16.10;;;0.80;99.90;;;;;;6307490;22;20436;-82
2021/01/25 16:14:01;;;;;;;18.80;18.00;;;0.80;99.90;;;;;;6317766;22;20728;-82
2021/01/25 16:16:32;;;;;;;21.07;20.10;;;0.50;99.90;;;;;;6317625;22;20413;-83
2021/01/25 16:19:05;;;;;;;20.00;19.10;;;0.60;99.90;;;;;;6307417;22;20447;-82
2021/01/25 16:24:22;;;;;;;17.50;16.70;;;0.20;99.90;;;;;;6291647;22;20724;-82
2021/01/25 16:26:49;;;;;;;17.77;16.98;;;-0.10;99.90;;;;;;6317463;22;20157;-82
2021/01/25 16:29:17;;;;;;;17.85;17.05;;;-0.30;99.90;;;;;;6307337;22;20534;-82
2021/01/25 16:31:43;;;;;;;19.23;18.33;;;-0.40;99.90;;;;;;6307021;22;20204;-82
2021/01/25 16:34:12;;;;;;;20.27;19.38;;;-0.70;99.90;;;;;;6316525;22;20165;-82
2021/01/25 16:36:39;;;;;;;22.90;21.90;;;-0.90;99.90;;;;;;6307458;22;20590;-82
2021/01/25 16:39:06;;;;;;;21.80;20.90;;;-0.60;99.90;;;;;;6319556;22;20151;-82
2021/01/25 16:41:32;;;;;;;24.02;23.02;;;-0.70;99.90;;;;;;6309598;22;20157;-82
2021/01/25 16:43:59;;;;;;;23.77;22.77;;;-0.70;99.90;;;;;;6309411;22;20459;-82
2021/01/25 16:46:26;;;;;;;23.55;22.55;;;-0.50;99.90;;;;;;6309430;22;20155;-82
2021/01/25 16:49:00;;;;;;;23.02;22.02;;;-0.20;99.90;;;;;;6319458;22;20524;-82
2021/01/25 16:51:49;;;;;;;24.35;23.35;;;0.00;99.90;;;;;;6307963;22;20154;-81
2021/01/25 16:54:17;;;;;;;25.98;24.88;;;0.30;99.90;;;;;;6309333;22;20151;-81
2021/01/25 16:57:04;;;;;;;;;;;;;;;;;;;;;
2021/01/25 16:59:35;;;;;;;23.05;22.05;;;0.50;99.90;;;;;;6319874;22;20162;-81
2021/01/25 17:02:22;;;;;;;21.23;20.33;;;0.40;99.90;;;;;;6308800;22;20188;-81
2021/01/25 17:04:51;;;;;;;20.05;19.15;;;0.30;99.90;;;;;;6307416;22;20163;-81
2021/01/25 17:07:25;;;;;;;21.40;20.50;;;0.10;99.90;;;;;;6319196;22;20226;-81
2021/01/25 17:10:08;;;;;;;23.77;22.77;;;-0.10;99.90;;;;;;6319104;22;20239;-80
2021/01/25 17:12:35;;;;;;;23.05;22.05;;;-0.10;99.90;;;;;;6319005;22;20676;-80
2021/01/25 17:15:05;;;;;;;23.20;22.20;;;-0.20;99.90;;;;;;6309191;22;20157;-81
2021/01/25 17:17:34;;;;;;;23.40;22.40;;;-0.20;99.90;;;;;;6309131;22;20167;-82
2021/01/25 17:20:05;;;;;;;23.15;22.15;;;-0.30;99.90;;;;;;6307373;22;20952;-82
2021/01/25 17:22:34;;;;;;;23.30;22.30;;;-0.30;99.90;;;;;;6309132;22;20182;-82
2021/01/25 17:25:09;;;;;;;23.55;22.55;;;-0.40;99.90;;;;;;6308800;22;20594;-81
2021/01/25 17:27:43;;;;;;;23.83;22.83;;;-0.40;99.90;;;;;;6308974;22;20280;-82
2021/01/25 17:30:13;;;;;;;23.27;22.27;;;-0.40;99.90;;;;;;6308625;22;20715;-82
2021/01/25 17:32:40;;;;;;;24.15;23.15;;;-0.30;99.90;;;;;;6309157;22;20163;-81
2021/01/25 17:35:08;;;;;;;24.60;23.60;;;-0.20;99.90;;;;;;6307698;22;20155;-82
2021/01/25 17:37:53;;;;;;;24.70;23.70;;;-0.20;99.90;;;;;;6308673;22;20155;-82
2021/01/25 17:40:26;;;;;;;25.98;24.88;;;-0.10;99.90;;;;;;6319020;22;20165;-81
2021/01/25 17:42:56;;;;;;;27.35;26.15;;;0.00;99.90;;;;;;6308663;22;20621;-82
2021/01/25 17:48:38;;;;;;;25.35;24.25;;;-0.10;99.90;;;;;;6307177;22;20244;-82
2021/01/25 17:51:17;;;;;;;25.60;24.50;;;-0.20;99.90;;;;;;6300934;22;20167;-83
2021/01/25 17:53:44;;;;;;;25.52;24.42;;;-0.20;99.90;;;;;;6319328;22;20166;-78
2021/01/25 17:58:56;;;;;;;25.42;24.33;;;-0.20;99.90;;;;;;6304007;22;20231;-82
2021/01/25 18:01:36;;;;;;;25.35;24.25;;;-0.20;99.90;;;;;;6318421;22;20652;-82
2021/01/25 18:04:07;;;;;;;24.73;23.73;;;-0.20;99.90;;;;;;6319109;22;20162;-82
2021/01/25 18:06:49;;;;;;;26.13;25.02;;;0.00;99.90;;;;;;6317931;22;20152;-82
2021/01/25 18:09:19;;;;;;;26.02;24.92;;;0.00;99.90;;;;;;6318994;22;20190;-82
2021/01/25 18:11:47;;;;;;;26.98;25.88;;;0.00;99.90;;;;;;6319028;22;20198;-82
2021/01/25 18:14:30;;;;;;;26.88;25.77;;;0.20;99.90;;;;;;6308747;22;20158;-82
2021/01/25 18:17:22;;;;;;;27.60;26.50;;;0.30;99.90;;;;;;6308641;22;20227;-82
2021/01/25 18:20:21;;;;;;;26.33;25.23;;;0.30;99.90;;;;;;6191692;23;20436;-82
2021/01/25 18:22:55;;;;;;;25.20;24.20;;;0.30;99.90;;;;;;6308469;22;20398;-82
2021/01/25 18:25:53;;;;;;;;;;;;;;;;;;;;;
2021/01/25 18:29:11;;;;;;;24.80;23.80;;;0.40;99.90;;;;;;6298033;22;20449;-82
2021/01/25 18:31:49;;;;;;;25.87;24.77;;;0.40;99.90;;;;;;6308365;22;20402;-82
2021/01/25 18:34:58;;;;;;;25.30;24.30;;;0.40;99.90;;;;;;6317448;22;20405;-82
2021/01/25 18:37:49;;;;;;;26.03;24.93;;;0.40;99.90;;;;;;6318730;22;20164;-82
2021/01/25 18:40:43;;;;;;;25.87;24.77;;;0.50;99.90;;;;;;6318673;22;20895;-82
2021/01/25 18:43:24;;;;;;;24.90;23.90;;;0.50;99.90;;;;;;6318609;22;20429;-82
2021/01/25 18:46:01;;;;;;;28.47;27.30;;;0.60;99.90;;;;;;6308337;22;20429;-83
2021/01/25 18:49:05;;;;;;;;;;;;;;;;;;;;;
2021/01/25 18:55:55;;;;;;;;;;;;;;;;;;;;;
2021/01/25 18:58:50;;;;;;;23.40;22.40;;;0.70;99.90;;;;;;6001912;23;20221;-83
2021/01/25 19:01:33;;;;;;;22.92;21.92;;;0.60;99.90;;;;;;6178775;23;20194;-83
2021/01/25 19:04:04;;;;;;;24.27;23.27;;;0.70;99.90;;;;;;6184491;23;20157;-83
2021/01/25 19:07:13;;;;;;;23.07;22.07;;;0.90;99.90;;;;;;6191657;23;20407;-83
2021/01/25 19:09:45;;;;;;;23.20;22.20;;;0.80;99.90;;;;;;6193261;23;20464;-82
2021/01/25 19:12:12;;;;;;;22.60;21.60;;;0.80;99.90;;;;;;6201794;22;21327;-81
2021/01/25 19:15:07;;;;;;;;;;;;;;;;;;;;;
2021/01/25 19:17:57;;;;;;;;;;;;;;;;;;;;;
2021/01/25 19:20:38;;;;;;;20.87;19.97;;;0.90;99.90;;;;;;6213474;23;20407;-82
2021/01/25 19:23:05;;;;;;;20.20;19.30;;;0.90;99.90;;;;;;6228679;22;20412;-83
2021/01/25 19:25:33;;;;;;;20.90;20.00;;;1.00;99.90;;;;;;6307644;22;20409;-83
2021/01/25 19:28:24;;;;;;;20.30;19.40;;;0.90;99.90;;;;;;6317906;22;20428;-83
2021/01/25 19:31:31;;;;;;;;;;;;;;;;;;;;;
2021/01/25 19:34:15;;;;;;;;;;;;;;;;;;;;;
2021/01/25 19:36:49;;;;;;;20.40;19.50;;;1.00;99.90;;;;;;6192863;23;20412;-83
2021/01/25 19:39:35;;;;;;;20.80;19.90;;;0.90;99.90;;;;;;6192553;23;20413;-83
2021/01/25 19:42:09;;;;;;;22.73;21.73;;;1.00;99.90;;;;;;6182882;23;20396;-83
2021/01/25 19:44:44;;;;;;;22.37;21.37;;;1.00;99.90;;;;;;6195874;22;20404;-83
2021/01/25 19:47:53;;;;;;;20.00;19.10;;;1.10;99.90;;;;;;6317852;22;20397;-83
2021/01/25 19:50:41;;;;;;;19.80;18.90;;;1.00;99.90;;;;;;6084873;23;20442;-82
2021/01/25 19:53:33;;;;;;;20.63;19.73;;;1.10;99.90;;;;;;6308119;22;20671;-84
2021/01/25 19:56:04;;;;;;;21.13;20.23;;;1.20;99.90;;;;;;6317470;22;20467;-83
2021/01/25 19:58:33;;;;;;;21.20;20.30;;;1.10;99.90;;;;;;6307615;22;20459;-83
2021/01/25 20:01:05;;;;;;;20.43;19.53;;;1.20;99.90;;;;;;6307526;22;20818;-84
2021/01/25 20:03:43;;;;;;;19.90;19.00;;;1.30;99.90;;;;;;6317658;22;20862;-84
2021/01/25 20:06:13;;;;;;;21.80;20.80;;;1.30;99.90;;;;;;6305201;22;20216;-83
2021/01/25 20:08:48;;;;;;;19.27;18.38;;;1.40;99.90;;;;;;6307583;22;20712;-83
2021/01/25 20:11:31;;;;;;;;;;;;;;;;;;;;;
2021/01/25 20:14:14;;;;;;;19.30;18.50;;;1.30;99.90;;;;;;6306880;22;20401;-83
2021/01/25 20:16:52;;;;;;;;;;;;;;;;;;;;;
2021/01/25 20:19:41;;;;;;;18.40;17.60;;;1.40;99.90;;;;;;6284432;22;20409;-83
2021/01/25 20:25:22;;;;;;;19.90;19.00;;;1.40;99.90;;;;;;6317531;22;20397;-82
2021/01/25 20:28:00;;;;;;;17.33;16.53;;;1.50;99.90;;;;;;6307452;22;20444;-82
2021/01/25 20:30:37;;;;;;;17.10;16.30;;;1.50;99.90;;;;;;6237855;22;20444;-83
2021/01/25 20:33:26;;;;;;;18.33;17.53;;;1.50;99.90;;;;;;6263467;22;20413;-83
2021/01/25 20:35:58;;;;;;;17.57;16.77;;;1.50;99.90;;;;;;6316343;22;20456;-84
2021/01/25 20:38:37;;;;;;;;;;;;;;;;;;;;;
2021/01/25 20:41:30;;;;;;;;;;;;;;;;;;;;;
2021/01/25 20:44:07;;;;;;;;;;;;;;;;;;;;;
2021/01/25 20:46:34;;;;;;;18.83;18.03;;;1.70;99.90;;;;;;6311832;22;20170;-84
2021/01/25 20:49:06;;;;;;;18.83;18.03;;;1.60;99.90;;;;;;6307339;22;20463;-84
2021/01/25 20:54:42;;;;;;;17.80;17.00;;;1.70;99.90;;;;;;6315878;22;20412;-83
2021/01/25 20:57:26;;;;;;;18.60;17.80;;;1.80;99.90;;;;;;6307433;22;20394;-84
2021/01/25 21:06:49;;;;;;;17.17;16.37;;;1.90;99.90;;;;;;6191101;23;20488;-83
2021/01/25 21:36:54;;;;;;;;;;;;;;;;;;;;;
2021/01/25 21:39:53;;;;;;;14.90;14.20;;;2.00;99.90;;;;;;6090732;23;20947;-86
2021/01/25 21:43:18;;;;;;;;;;;;;;;;;;;;;
2021/01/25 21:45:59;;;;;;;16.30;15.50;;;2.00;99.90;;;;;;6169487;22;20406;-85
2021/01/25 21:48:51;;;;;;;14.70;14.00;;;2.00;99.90;;;;;;6318788;22;20159;-84
2021/01/25 21:51:43;;;;;;;15.30;14.60;;;2.20;99.90;;;;;;6317874;22;20205;-84
2021/01/25 21:54:46;;;;;;;15.23;14.53;;;2.10;99.90;;;;;;6308540;22;20481;-85
2021/01/25 21:58:00;;;;;;;;;;;;;;;;;;;;;
2021/01/25 22:01:15;;;;;;;;;;;;;;;;;;;;;
2021/01/25 22:04:23;;;;;;;;;;;;;;;;;;;;;
2021/01/25 22:07:02;;;;;;;60.17;54.30;;;2.10;99.90;;;;;;6182619;22;20413;-84
2021/01/25 22:13:08;;;;;;;66.07;59.40;;;2.10;99.90;;;;;;6273494;22;20436;-85
2021/01/25 22:19:42;;;;;;;53.97;48.87;;;2.20;99.90;;;;;;6130145;23;20510;-84
2021/01/25 22:23:09;;;;;;;52.53;47.45;;;2.30;99.90;;;;;;5935374;22;15065272;-85
2021/01/25 22:29:51;;;;;;;55.07;49.53;;;2.50;99.90;;;;;;6116363;23;20418;-84
2021/01/25 22:36:11;;;;;;;;;;;;;;;;;;;;;
2021/01/25 22:39:10;;;;;;;44.90;41.00;;;2.50;99.90;;;;;;6150470;23;20410;-85
2021/01/25 22:42:01;;;;;;;52.53;47.47;;;2.60;99.90;;;;;;6186098;22;20739;-84
2021/01/25 22:44:40;;;;;;;56.13;50.43;;;2.50;99.90;;;;;;6277161;22;20494;-84